Time;durP1;ratioP1;P1;durP2;ratioP2;P2;SDS_P1;SDS_P2;PMS_P1;PMS_P2;Temp;Humidity;BMP_temperature;BMP_pressure;BME280_temperature;BME280_humidity;BME280_pressure;Samples;Min_cycle;Max_cycle;Signal;HPM_P1;HPM_P2
2023/02/26 00:12:23;;;;;;;9.10;4.30;;;;;;;3.41;77.22;99135.86;671659;1262;138670;-87
2023/02/26 00:27:26;;;;;;;6.40;3.70;;;;;;;3.42;76.19;99165.69;669904;1263;139001;-86
2023/02/26 00:42:29;;;;;;;10.60;3.50;;;;;;;3.51;75.82;99180.58;671647;1264;138653;-87
2023/02/26 00:57:33;;;;;;;9.10;2.90;;;;;;;3.61;75.33;99202.77;671118;1263;139527;-86
2023/02/26 01:12:37;;;;;;;8.70;3.00;;;;;;;3.68;74.97;99225.84;670884;1263;138614;-87
2023/02/26 01:27:40;;;;;;;6.30;2.50;;;;;;;3.66;74.66;99243.23;670904;1264;139195;-87
2023/02/26 01:42:49;;;;;;;3.40;2.00;;;;;;;3.59;73.64;99270.38;672781;1262;138860;-86
2023/02/26 01:57:56;;;;;;;5.70;2.40;;;;;;;3.62;73.13;99297.46;672635;1263;139642;-86
2023/02/26 02:13:24;;;;;;;2.90;2.30;;;;;;;3.50;71.69;99321.88;672487;1263;138423;-86
2023/02/26 02:28:39;;;;;;;5.80;2.20;;;;;;;3.36;70.69;99340.52;672351;1271;138710;-85
2023/02/26 02:43:48;;;;;;;1.90;1.60;;;;;;;3.40;70.28;99360.33;673224;1262;138853;-86
2023/02/26 02:58:56;;;;;;;2.80;2.20;;;;;;;3.34;69.36;99379.08;672852;1267;138355;-86
2023/02/26 03:14:00;;;;;;;3.20;1.70;;;;;;;3.36;68.77;99404.64;672404;1262;139390;-84
2023/02/26 03:29:22;;;;;;;1.50;1.10;;;;;;;3.40;68.38;99428.42;670425;1265;138900;-84
2023/02/26 03:44:32;;;;;;;4.20;2.10;;;;;;;3.34;68.11;99462.75;670329;1262;138629;-84
2023/02/26 03:59:37;;;;;;;2.80;2.00;;;;;;;3.41;68.21;99484.02;670647;1266;139526;-84
2023/02/26 04:15:05;;;;;;;3.80;1.80;;;;;;;3.31;68.37;99512.16;672361;1263;139390;-85
2023/02/26 04:30:11;;;;;;;3.80;2.00;;;;;;;3.34;68.42;99542.89;669737;1263;139139;-85
2023/02/26 04:45:15;;;;;;;2.10;1.30;;;;;;;3.34;68.34;99568.88;671250;1262;139158;-84
2023/02/26 05:00:19;;;;;;;4.30;2.30;;;;;;;3.32;68.27;99581.63;671089;1264;138172;-85
2023/02/26 05:15:23;;;;;;;3.30;2.50;;;;;;;3.36;68.49;99599.34;672931;1258;138744;-86
2023/02/26 05:30:26;;;;;;;24.90;5.70;;;;;;;3.35;68.40;99615.92;672009;1263;138559;-85
2023/02/26 05:45:29;;;;;;;8.80;2.80;;;;;;;3.38;68.54;99643.43;674149;1263;138935;-85
2023/02/26 06:00:33;;;;;;;10.20;3.40;;;;;;;3.50;68.15;99675.86;672663;1261;138353;-86
2023/02/26 06:15:36;;;;;;;17.80;8.50;;;;;;;3.50;68.04;99718.33;674599;1264;139102;-85
2023/02/26 06:30:42;;;;;;;22.90;10.60;;;;;;;3.82;67.28;99762.20;670747;1261;139652;-86
2023/02/26 06:45:47;;;;;;;8.50;3.60;;;;;;;3.57;65.38;99777.14;671793;1263;138994;-87
2023/02/26 07:00:50;;;;;;;15.50;6.70;;;;;;;3.74;65.08;99792.96;674537;1260;138846;-87
2023/02/26 07:15:54;;;;;;;8.40;3.50;;;;;;;4.56;64.74;99822.69;673608;1273;627569;-87
2023/02/26 07:30:57;;;;;;;7.70;3.30;;;;;;;4.78;64.86;99834.52;673446;1262;138569;-87
2023/02/26 07:46:03;;;;;;;276.00;97.80;;;;;;;5.59;64.71;99857.77;672701;1263;138874;-88
2023/02/26 08:01:06;;;;;;;37.10;20.20;;;;;;;6.28;64.28;99897.83;673438;1262;139158;-88
2023/02/26 08:16:10;;;;;;;27.80;10.40;;;;;;;6.60;64.11;99924.37;672634;1274;139117;-88
2023/02/26 08:34:48;;;;;;;56.70;36.50;;;;;;;5.79;63.45;99939.77;654880;1294;1209407;-90
2023/02/26 08:50:00;;;;;;;11.50;7.20;;;;;;;5.76;63.46;99972.45;668177;1269;139592;-89
2023/02/26 09:05:04;;;;;;;18.20;9.00;;;;;;;5.79;64.02;99999.14;670500;1274;138038;-88
2023/02/26 09:20:08;;;;;;;28.00;13.00;;;;;;;6.29;63.88;100027.46;671588;1272;138175;-92
2023/02/26 09:35:12;;;;;;;45.60;17.80;;;;;;;6.67;63.76;100055.27;669098;1271;139136;-89
2023/02/26 09:50:31;;;;;;;130.10;41.00;;;;;;;7.09;63.21;100074.34;670809;1278;138452;-89
2023/02/26 10:05:56;;;;;;;12.10;4.40;;;;;;;6.99;62.70;100103.45;671255;1265;139024;-90
2023/02/26 10:21:13;;;;;;;7.40;4.20;;;;;;;7.06;61.41;100113.34;671141;1265;138973;-90
2023/02/26 10:36:50;;;;;;;16.80;6.50;;;;;;;7.09;60.65;100132.77;671559;1268;138486;-91
2023/02/26 10:51:54;;;;;;;7.70;3.90;;;;;;;7.37;60.22;100158.67;669454;1274;138882;-89
2023/02/26 11:07:04;;;;;;;12.10;3.90;;;;;;;7.78;59.39;100177.60;670183;1262;138609;-90
2023/02/26 11:22:13;;;;;;;17.60;5.50;;;;;;;7.21;59.63;100203.52;672595;1276;138602;-91
2023/02/26 11:37:23;;;;;;;24.00;9.30;;;;;;;7.20;60.24;100226.92;670428;1265;138581;-90
2023/02/26 11:52:34;;;;;;;6.90;3.00;;;;;;;7.65;59.03;100244.41;670717;1265;139496;-90
2023/02/26 12:07:38;;;;;;;6.40;2.70;;;;;;;7.76;57.65;100255.73;669987;1266;138283;-89
2023/02/26 12:23:20;;;;;;;11.20;4.90;;;;;;;8.26;56.92;100271.12;670497;1266;138214;-89
2023/02/26 12:38:36;;;;;;;14.70;6.50;;;;;;;7.74;57.06;100280.81;671259;1267;139531;-90
2023/02/26 12:53:55;;;;;;;10.90;4.20;;;;;;;8.19;55.93;100292.35;671689;1266;139202;-90
2023/02/26 13:09:17;;;;;;;16.20;5.70;;;;;;;7.65;56.10;100312.11;672504;1263;139784;-90
2023/02/26 13:24:56;;;;;;;17.10;4.60;;;;;;;7.45;55.90;100337.14;673583;1266;137648;-90
2023/02/26 13:40:12;;;;;;;19.30;6.30;;;;;;;6.76;56.25;100358.39;671091;1267;138181;-89
2023/02/26 13:56:06;;;;;;;24.30;7.40;;;;;;;6.54;57.07;100375.80;673213;1267;138501;-90
2023/02/26 14:11:16;;;;;;;14.20;4.90;;;;;;;6.50;56.87;100392.36;678270;1267;137576;-89
2023/02/26 14:26:24;;;;;;;19.00;9.80;;;;;;;6.32;56.45;100409.23;677903;1267;138329;-87
2023/02/26 14:41:35;;;;;;;17.80;6.70;;;;;;;6.12;56.87;100434.05;677576;1263;138853;-88
2023/02/26 14:56:44;;;;;;;21.50;8.60;;;;;;;6.00;57.33;100450.80;669450;1266;138621;-88
2023/02/26 15:12:30;;;;;;;44.10;15.60;;;;;;;5.79;57.56;100461.16;668271;1270;138547;-87
2023/02/26 15:27:35;;;;;;;28.20;12.00;;;;;;;5.81;57.57;100468.30;667441;1266;139467;-87
2023/02/26 15:42:41;;;;;;;22.80;9.70;;;;;;;5.72;57.04;100488.84;668812;1263;139717;-87
2023/02/26 15:57:46;;;;;;;15.50;7.10;;;;;;;5.53;57.80;100501.36;670701;1266;139579;-87
2023/02/26 16:12:52;;;;;;;32.90;15.60;;;;;;;5.29;59.19;100528.33;671524;1263;138744;-89
2023/02/26 16:28:02;;;;;;;87.90;29.50;;;;;;;4.96;61.22;100547.83;671155;1267;139529;-89
2023/02/26 16:43:34;;;;;;;27.60;11.30;;;;;;;4.79;61.68;100570.54;670249;1266;137674;-90
2023/02/26 16:58:39;;;;;;;21.80;7.90;;;;;;;4.75;61.65;100592.59;670930;1265;138907;-87
2023/02/26 17:13:42;;;;;;;21.10;9.00;;;;;;;4.70;62.23;100612.96;669609;1264;138483;-88
2023/02/26 17:28:48;;;;;;;30.00;14.50;;;;;;;4.59;63.13;100630.40;670182;1263;139166;-87
2023/02/26 17:43:51;;;;;;;35.50;14.10;;;;;;;4.43;65.02;100656.95;673013;1266;139224;-88
2023/02/26 17:58:57;;;;;;;21.40;9.00;;;;;;;4.26;66.24;100665.71;673596;1264;138574;-89
2023/02/26 18:14:02;;;;;;;24.00;10.10;;;;;;;4.09;67.78;100694.66;670093;1262;138494;-90
2023/02/26 18:29:05;;;;;;;31.70;13.00;;;;;;;4.03;68.51;100700.02;673168;1263;139121;-88
2023/02/26 18:44:10;;;;;;;28.00;12.90;;;;;;;4.09;68.84;100705.72;674823;1264;139340;-88
2023/02/26 18:59:13;;;;;;;18.30;8.70;;;;;;;4.05;69.76;100721.02;674409;1263;139155;-87
2023/02/26 19:14:17;;;;;;;46.50;28.10;;;;;;;4.00;70.79;100737.73;672031;1267;138804;-90
2023/02/26 19:29:24;;;;;;;31.50;15.60;;;;;;;3.96;72.30;100751.23;673757;1263;138956;-88
2023/02/26 19:44:31;;;;;;;34.70;18.90;;;;;;;3.98;72.59;100769.70;677347;1265;140043;-88
2023/02/26 19:59:35;;;;;;;20.40;8.70;;;;;;;4.03;72.37;100783.09;671737;1262;139085;-87
2023/02/26 20:14:38;;;;;;;21.90;8.90;;;;;;;3.89;71.96;100794.37;672233;1262;138438;-88
2023/02/26 20:29:42;;;;;;;15.10;7.30;;;;;;;3.84;72.71;100801.37;674124;1263;138254;-90
2023/02/26 20:44:46;;;;;;;10.10;6.20;;;;;;;3.62;74.98;100820.48;671019;1275;139047;-89
2023/02/26 20:59:49;;;;;;;18.60;7.30;;;;;;;3.47;76.28;100832.97;671792;1263;138856;-87
2023/02/26 21:14:54;;;;;;;24.70;10.80;;;;;;;3.42;77.11;100842.06;672801;1264;138721;-87
2023/02/26 21:29:58;;;;;;;25.90;12.60;;;;;;;3.52;77.57;100845.23;670629;1262;138383;-87
2023/02/26 21:45:01;;;;;;;16.20;9.30;;;;;;;3.47;78.53;100854.97;671272;1263;138644;-89
2023/02/26 22:00:09;;;;;;;11.40;7.10;;;;;;;3.49;78.67;100867.83;670744;1262;138699;-87
2023/02/26 22:15:15;;;;;;;12.60;6.40;;;;;;;3.70;78.37;100879.94;670511;1265;138822;-88
2023/02/26 22:30:18;;;;;;;16.10;8.70;;;;;;;3.82;77.69;100883.33;671744;1262;138761;-89
2023/02/26 22:45:21;;;;;;;16.90;9.00;;;;;;;3.83;77.59;100898.70;671215;1265;138501;-88
2023/02/26 23:00:26;;;;;;;18.30;8.80;;;;;;;3.80;77.46;100916.65;671009;1262;138437;-88
2023/02/26 23:15:30;;;;;;;12.80;7.50;;;;;;;3.81;77.51;100934.23;669938;1264;139697;-89
2023/02/26 23:30:35;;;;;;;18.20;9.40;;;;;;;3.80;77.72;100946.42;669986;1262;139071;-88
2023/02/26 23:45:39;;;;;;;12.90;8.10;;;;;;;3.87;77.54;100969.96;668950;1266;138390;-88
